createdAt,value
2018-03-11T06:41:08.458Z,19.70
2018-03-11T06:41:43.749Z,19.50
2018-03-11T06:42:18.845Z,19.10
2018-03-11T06:42:54.256Z,19.20
2018-03-11T06:43:29.495Z,18.60
2018-03-11T06:44:04.973Z,18.30
2018-03-11T06:44:40.306Z,18.00
2018-03-11T06:45:15.739Z,18.20
2018-03-11T06:45:51.364Z,18.30
2018-03-11T06:46:26.980Z,17.70
2018-03-11T06:47:02.565Z,16.70
2018-03-11T06:47:37.977Z,16.60
2018-03-11T06:48:14.776Z,17.60
2018-03-11T06:48:50.214Z,18.10
2018-03-11T06:49:25.834Z,18.30
2018-03-11T06:50:01.178Z,17.10
2018-03-11T06:50:36.935Z,16.40
2018-03-11T06:51:12.174Z,16.20
2018-03-11T06:51:47.605Z,16.30
2018-03-11T06:52:22.829Z,16.50
2018-03-11T06:52:58.146Z,16.80
2018-03-11T06:53:33.486Z,15.60
2018-03-11T06:54:09.087Z,16.20
2018-03-11T06:54:44.412Z,16.90
2018-03-11T06:55:19.852Z,17.10
2018-03-11T06:55:55.252Z,16.60
2018-03-11T06:56:30.448Z,17.40
2018-03-11T06:57:05.880Z,16.50
2018-03-11T06:57:41.383Z,16.30
2018-03-11T06:58:16.609Z,17.10
2018-03-11T06:58:52.048Z,17.80
2018-03-11T06:59:27.488Z,16.90
2018-03-11T07:00:02.796Z,15.70
2018-03-11T07:00:39.231Z,16.20
2018-03-11T07:01:14.564Z,17.00
2018-03-11T07:01:50.011Z,16.40
2018-03-11T07:02:25.536Z,16.20
2018-03-11T07:03:01.072Z,17.00
2018-03-11T07:03:36.491Z,16.30
2018-03-11T07:04:12.009Z,15.80
2018-03-11T07:04:47.750Z,16.20
2018-03-11T07:05:23.586Z,15.50
2018-03-11T07:05:59.136Z,15.20
2018-03-11T07:06:34.517Z,15.60
2018-03-11T07:07:09.917Z,15.30
2018-03-11T07:07:45.510Z,14.80
2018-03-11T07:08:20.941Z,14.10
2018-03-11T07:08:56.293Z,13.40
2018-03-11T07:09:31.593Z,13.70
2018-03-11T07:10:07.088Z,14.90
2018-03-11T07:10:43.074Z,15.00
2018-03-11T07:11:18.526Z,14.10
2018-03-11T07:11:53.961Z,15.70
2018-03-11T07:12:29.320Z,14.50
2018-03-11T07:13:04.557Z,13.70
2018-03-11T07:13:39.782Z,13.40
2018-03-11T07:14:15.184Z,13.40
2018-03-11T07:14:50.397Z,13.00
2018-03-11T07:15:25.626Z,12.80
2018-03-11T07:16:00.956Z,13.60
2018-03-11T07:16:36.263Z,13.90
2018-03-11T07:17:11.612Z,13.80
2018-03-11T07:17:47.213Z,13.90
2018-03-11T07:18:22.555Z,14.00
2018-03-11T07:18:57.880Z,13.40
2018-03-11T07:19:33.327Z,13.00
2018-03-11T07:20:08.847Z,13.30
2018-03-11T07:20:44.068Z,13.50
2018-03-11T07:21:19.379Z,12.90
2018-03-11T07:21:54.615Z,13.10
2018-03-11T07:22:30.272Z,13.80
2018-03-11T07:23:05.640Z,13.00
2018-03-11T07:23:40.852Z,12.50
2018-03-11T07:24:16.268Z,12.60
2018-03-11T07:24:51.484Z,13.70
2018-03-11T07:25:26.817Z,12.40
2018-03-11T07:26:02.309Z,12.50
2018-03-11T07:26:37.973Z,13.50
2018-03-11T07:27:13.312Z,12.70
2018-03-11T07:27:48.779Z,13.30
2018-03-11T07:28:24.301Z,13.10
2018-03-11T07:28:59.872Z,13.40
2018-03-11T07:29:35.405Z,14.30
2018-03-11T07:30:10.848Z,13.40
2018-03-11T07:30:46.893Z,12.80
2018-03-11T07:31:22.269Z,12.90
2018-03-11T07:31:57.980Z,13.40
2018-03-11T07:32:33.308Z,13.50
2018-03-11T07:33:08.937Z,13.00
2018-03-11T07:33:44.084Z,13.20
2018-03-11T07:34:19.303Z,13.50
2018-03-11T07:34:54.627Z,14.10
2018-03-11T07:35:29.935Z,14.00
2018-03-11T07:36:05.192Z,14.00
2018-03-11T07:36:40.494Z,13.40
2018-03-11T07:37:15.942Z,12.30
2018-03-11T07:37:51.354Z,13.10
2018-03-11T07:38:27.044Z,13.10
2018-03-11T07:39:02.564Z,12.80
2018-03-11T07:39:37.836Z,13.20
2018-03-11T07:40:12.940Z,12.80
2018-03-11T07:40:48.597Z,13.20
2018-03-11T07:41:24.001Z,13.60
2018-03-11T07:41:59.180Z,13.10
2018-03-11T07:42:34.520Z,12.40
2018-03-11T07:43:10.046Z,11.80
2018-03-11T07:43:45.195Z,13.00
2018-03-11T07:44:20.980Z,13.20
2018-03-11T07:44:56.378Z,12.30
2018-03-11T07:45:32.106Z,12.70
2018-03-11T07:46:07.805Z,12.60
2018-03-11T07:46:43.025Z,11.80
2018-03-11T07:47:18.546Z,12.00
2018-03-11T07:47:54.003Z,11.70
2018-03-11T07:48:29.447Z,11.50
2018-03-11T07:49:04.938Z,11.90
2018-03-11T07:49:40.448Z,11.80
2018-03-11T07:50:16.120Z,11.80
2018-03-11T07:50:52.047Z,12.00
2018-03-11T07:51:27.684Z,12.30
2018-03-11T07:52:03.005Z,11.50
2018-03-11T07:52:38.365Z,11.70
2018-03-11T07:53:13.926Z,12.30
2018-03-11T07:53:50.020Z,11.80
2018-03-11T07:54:25.615Z,11.10
2018-03-11T07:55:00.930Z,11.30
2018-03-11T07:55:36.370Z,11.20
2018-03-11T07:56:11.714Z,11.30
2018-03-11T07:56:47.006Z,11.60
2018-03-11T07:57:22.438Z,11.30
2018-03-11T07:57:57.763Z,11.80
2018-03-11T07:58:33.094Z,11.80
2018-03-11T07:59:08.345Z,11.90
2018-03-11T07:59:43.832Z,12.20
2018-03-11T08:00:19.241Z,12.40
2018-03-11T08:00:55.217Z,12.70
2018-03-11T08:01:30.439Z,12.30
2018-03-11T08:02:05.879Z,11.70
2018-03-11T08:02:41.405Z,11.40
2018-03-11T08:03:16.719Z,11.30
2018-03-11T08:03:51.789Z,11.70
2018-03-11T08:04:27.341Z,13.00
2018-03-11T08:05:02.995Z,13.00
2018-03-11T08:05:38.740Z,12.20
2018-03-11T08:06:14.189Z,12.50
2018-03-11T08:06:49.644Z,12.60
2018-03-11T08:07:24.955Z,12.50
2018-03-11T08:08:00.590Z,12.80
2018-03-11T08:08:36.015Z,12.40
2018-03-11T08:09:11.199Z,12.50
2018-03-11T08:09:46.518Z,12.90
2018-03-11T08:10:22.589Z,12.00
2018-03-11T08:10:57.821Z,12.10
2018-03-11T08:11:33.355Z,12.90
2018-03-11T08:12:08.588Z,12.80
2018-03-11T08:12:43.888Z,12.90
2018-03-11T08:13:19.467Z,13.30
2018-03-11T08:13:54.998Z,13.60
2018-03-11T08:14:30.653Z,14.30
2018-03-11T08:15:05.859Z,13.20
2018-03-11T08:15:41.487Z,13.60
2018-03-11T08:16:16.717Z,14.20
2018-03-11T08:16:52.051Z,14.50
2018-03-11T08:17:27.523Z,14.20
2018-03-11T08:18:02.932Z,14.70
2018-03-11T08:18:38.411Z,13.70
2018-03-11T08:19:13.965Z,13.50
2018-03-11T08:19:49.643Z,14.40
2018-03-11T08:20:24.847Z,13.80
2018-03-11T08:21:00.339Z,14.00
2018-03-11T08:21:35.758Z,13.60
2018-03-11T08:22:11.100Z,13.60
2018-03-11T08:22:46.360Z,12.90
2018-03-11T08:23:21.681Z,13.40
2018-03-11T08:23:57.165Z,13.50
2018-03-11T08:24:32.628Z,13.10
2018-03-11T08:25:08.048Z,13.00
2018-03-11T08:25:43.782Z,12.70
2018-03-11T08:26:19.572Z,14.30
2018-03-11T08:26:55.037Z,13.90
2018-03-11T08:27:31.812Z,12.80
2018-03-11T08:28:07.200Z,14.40
2018-03-11T08:28:42.436Z,14.80
2018-03-11T08:29:18.033Z,15.70
2018-03-11T08:29:53.356Z,15.50
2018-03-11T08:30:29.249Z,14.40
2018-03-11T08:31:04.356Z,15.30
2018-03-11T08:31:39.868Z,15.40
2018-03-11T08:32:15.519Z,14.70
2018-03-11T08:32:50.959Z,15.30
2018-03-11T08:33:26.600Z,13.70
2018-03-11T08:34:02.249Z,13.20
2018-03-11T08:34:37.782Z,14.00
2018-03-11T08:35:13.202Z,14.30
2018-03-11T08:35:48.444Z,14.50
2018-03-11T08:36:23.805Z,13.90
2018-03-11T08:36:59.157Z,14.20
2018-03-11T08:37:34.616Z,13.70
2018-03-11T08:38:09.964Z,12.30
2018-03-11T08:38:45.526Z,13.40
2018-03-11T08:39:20.968Z,14.30
2018-03-11T08:39:56.321Z,14.00
2018-03-11T08:40:31.623Z,13.70
2018-03-11T08:41:06.982Z,13.70
2018-03-11T08:41:42.263Z,14.40
2018-03-11T08:42:17.745Z,14.10
2018-03-11T08:42:53.686Z,13.40
2018-03-11T08:43:29.193Z,12.90
2018-03-11T08:44:04.554Z,14.20
2018-03-11T08:44:43.014Z,14.10
2018-03-11T08:45:18.331Z,14.60
2018-03-11T08:45:53.969Z,15.10
2018-03-11T08:46:29.197Z,14.30
2018-03-11T08:47:04.550Z,14.50
2018-03-11T08:47:39.914Z,14.10
2018-03-11T08:48:15.186Z,14.00
2018-03-11T08:48:50.703Z,14.20
2018-03-11T08:49:26.267Z,14.50
2018-03-11T08:50:01.784Z,14.20
2018-03-11T08:50:37.347Z,14.40
2018-03-11T08:51:12.669Z,15.00
2018-03-11T08:51:47.899Z,14.80
2018-03-11T08:52:23.152Z,14.30
2018-03-11T08:52:58.853Z,13.10
2018-03-11T08:53:34.289Z,13.40
2018-03-11T08:54:09.867Z,13.80
2018-03-11T08:54:45.155Z,14.60
2018-03-11T08:55:20.483Z,13.60
2018-03-11T08:55:56.090Z,13.70
2018-03-11T08:56:31.766Z,14.00
2018-03-11T08:57:07.084Z,13.80
2018-03-11T08:57:42.550Z,14.10
2018-03-11T08:58:17.913Z,14.20
2018-03-11T08:58:53.070Z,14.60
2018-03-11T08:59:28.468Z,14.60
2018-03-11T09:00:03.817Z,14.70
2018-03-11T09:00:40.639Z,14.30
2018-03-11T09:01:16.025Z,14.30
2018-03-11T09:01:51.234Z,15.30
2018-03-11T09:02:26.386Z,14.50
2018-03-11T09:03:02.012Z,14.60
2018-03-11T09:03:37.494Z,15.10
2018-03-11T09:04:13.053Z,15.90
2018-03-11T09:04:48.383Z,15.70
2018-03-11T09:05:23.738Z,15.10
2018-03-11T09:05:59.108Z,14.20
2018-03-11T09:06:34.836Z,14.30
2018-03-11T09:07:10.272Z,14.60
2018-03-11T09:07:45.669Z,15.30
2018-03-11T09:08:21.021Z,15.60
2018-03-11T09:08:56.763Z,14.90
2018-03-11T09:09:32.191Z,15.00
2018-03-11T09:10:07.648Z,14.90
2018-03-11T09:10:43.012Z,15.10
2018-03-11T09:11:18.436Z,15.60
2018-03-11T09:11:53.668Z,17.10
2018-03-11T09:12:30.117Z,16.10
2018-03-11T09:13:05.459Z,15.90
2018-03-11T09:13:40.678Z,16.20
2018-03-11T09:14:16.129Z,15.40
2018-03-11T09:14:51.526Z,14.60
2018-03-11T09:15:26.876Z,14.30
2018-03-11T09:16:02.491Z,14.80
2018-03-11T09:16:37.880Z,15.50
2018-03-11T09:17:13.200Z,15.40
2018-03-11T09:17:48.538Z,15.10
2018-03-11T09:18:24.062Z,14.60
2018-03-11T09:18:59.594Z,15.20
2018-03-11T09:19:35.462Z,15.10
2018-03-11T09:20:11.110Z,14.60
2018-03-11T09:20:46.543Z,13.80
2018-03-11T09:21:21.795Z,14.60
2018-03-11T09:21:57.255Z,15.20
2018-03-11T09:22:33.545Z,15.10
2018-03-11T09:23:09.076Z,14.60
2018-03-11T09:23:44.349Z,14.60
2018-03-11T09:24:19.584Z,14.80
2018-03-11T09:24:55.016Z,15.10
2018-03-11T09:25:30.330Z,15.80
2018-03-11T09:26:05.889Z,15.00
2018-03-11T09:26:41.620Z,14.50
2018-03-11T09:27:16.869Z,14.20
2018-03-11T09:27:52.089Z,15.30
2018-03-11T09:28:27.962Z,16.10
2018-03-11T09:29:03.417Z,16.40
2018-03-11T09:29:38.939Z,16.10
2018-03-11T09:30:14.317Z,15.90
2018-03-11T09:30:49.715Z,15.80
2018-03-11T09:31:25.269Z,14.40
2018-03-11T09:32:00.924Z,14.70
2018-03-11T09:32:36.483Z,15.80
2018-03-11T09:33:12.137Z,15.50
2018-03-11T09:33:47.782Z,14.80
2018-03-11T09:34:23.213Z,14.80
2018-03-11T09:34:59.044Z,14.30
2018-03-11T09:35:34.423Z,15.10
2018-03-11T09:36:09.978Z,15.40
2018-03-11T09:36:45.464Z,15.30
2018-03-11T09:37:21.023Z,14.70
2018-03-11T09:37:56.509Z,13.80
2018-03-11T09:38:31.956Z,13.80
2018-03-11T09:39:07.627Z,14.70
2018-03-11T09:39:43.357Z,13.70
2018-03-11T09:40:18.891Z,12.70
2018-03-11T09:40:54.087Z,13.40
2018-03-11T09:41:29.432Z,13.90
2018-03-11T09:42:04.760Z,13.90
2018-03-11T09:42:41.254Z,13.20
2018-03-11T09:43:16.611Z,12.30
2018-03-11T09:43:52.250Z,12.70
2018-03-11T09:44:27.665Z,12.70
2018-03-11T09:45:03.283Z,12.50
2018-03-11T09:45:38.641Z,12.90
2018-03-11T09:46:14.246Z,13.50
2018-03-11T09:46:49.673Z,14.90
2018-03-11T09:47:25.261Z,13.50
2018-03-11T09:48:00.577Z,12.60
2018-03-11T09:48:35.943Z,13.60
2018-03-11T09:49:11.106Z,11.70
2018-03-11T09:49:46.465Z,11.30
2018-03-11T09:50:21.864Z,12.00
2018-03-11T09:50:57.621Z,12.80
2018-03-11T09:51:32.996Z,12.60
2018-03-11T09:52:08.346Z,12.30
2018-03-11T09:52:43.836Z,12.80
2018-03-11T09:53:19.158Z,11.90
2018-03-11T09:53:54.332Z,12.10
2018-03-11T09:54:29.473Z,12.30
2018-03-11T09:55:04.812Z,12.10
2018-03-11T09:55:40.022Z,12.30
2018-03-11T09:56:15.365Z,12.00
2018-03-11T09:56:50.842Z,11.70
2018-03-11T09:57:26.096Z,11.60
2018-03-11T09:58:01.604Z,11.20
2018-03-11T09:58:36.842Z,11.80
2018-03-11T09:59:12.498Z,12.50
2018-03-11T09:59:47.789Z,12.40
2018-03-11T10:00:23.297Z,11.90
2018-03-11T10:00:59.734Z,12.00
2018-03-11T10:01:34.892Z,12.00
2018-03-11T10:02:10.383Z,11.10
2018-03-11T10:02:45.840Z,11.10
2018-03-11T10:03:21.460Z,12.00
2018-03-11T10:03:56.908Z,11.70
2018-03-11T10:04:32.335Z,11.10
2018-03-11T10:05:07.903Z,11.40
2018-03-11T10:05:44.656Z,12.40
2018-03-11T10:06:19.905Z,12.20
2018-03-11T10:06:55.438Z,11.80
2018-03-11T10:07:31.130Z,11.80
2018-03-11T10:08:06.387Z,11.60
2018-03-11T10:08:41.766Z,12.00
2018-03-11T10:09:17.130Z,12.90
2018-03-11T10:09:53.002Z,13.10
2018-03-11T10:10:28.587Z,12.10
2018-03-11T10:11:03.977Z,12.00
2018-03-11T10:11:39.376Z,11.70
2018-03-11T10:12:15.201Z,11.50
2018-03-11T10:12:50.746Z,11.60
2018-03-11T10:13:26.234Z,10.50
2018-03-11T10:14:01.689Z,9.80
2018-03-11T10:14:37.049Z,10.70
2018-03-11T10:15:12.390Z,11.20
2018-03-11T10:15:47.736Z,10.60
2018-03-11T10:16:23.049Z,10.20
2018-03-11T10:16:58.700Z,10.30
2018-03-11T10:17:34.343Z,11.00
2018-03-11T10:18:09.970Z,11.10
2018-03-11T10:18:45.423Z,11.10
2018-03-11T10:19:21.065Z,10.30
2018-03-11T10:19:56.761Z,10.80
2018-03-11T10:20:32.129Z,10.80
2018-03-11T10:21:07.359Z,10.90
2018-03-11T10:21:43.013Z,10.80
2018-03-11T10:22:18.639Z,10.00
2018-03-11T10:22:54.354Z,10.40
2018-03-11T10:23:30.122Z,11.20
2018-03-11T10:24:05.410Z,10.80
2018-03-11T10:24:40.765Z,10.40
2018-03-11T10:25:16.130Z,10.00
2018-03-11T10:25:51.702Z,11.10
2018-03-11T10:26:26.985Z,10.50
2018-03-11T10:27:02.181Z,9.90
2018-03-11T10:27:37.639Z,10.30
2018-03-11T10:28:13.062Z,9.90
2018-03-11T10:28:48.583Z,11.00
2018-03-11T10:29:23.869Z,11.00
2018-03-11T10:29:59.153Z,10.50
2018-03-11T10:30:34.674Z,10.40
2018-03-11T10:31:10.138Z,10.10
2018-03-11T10:31:45.599Z,9.10
2018-03-11T10:32:21.362Z,9.40
2018-03-11T10:32:56.717Z,9.70
2018-03-11T10:33:32.291Z,9.50
2018-03-11T10:34:07.751Z,9.40
2018-03-11T10:34:43.242Z,9.30
2018-03-11T10:35:19.049Z,9.10
2018-03-11T10:35:54.768Z,9.20
2018-03-11T10:36:30.374Z,8.80
2018-03-11T10:37:05.880Z,9.70
2018-03-11T10:37:41.288Z,9.50
2018-03-11T10:38:16.855Z,9.10
2018-03-11T10:38:52.493Z,9.70
2018-03-11T10:39:27.855Z,10.00
2018-03-11T10:40:03.320Z,10.90
2018-03-11T10:40:39.844Z,10.40
2018-03-11T10:41:15.543Z,9.30
2018-03-11T10:41:51.166Z,9.20
2018-03-11T10:42:26.398Z,9.00
2018-03-11T10:43:01.878Z,9.50
2018-03-11T10:43:37.412Z,9.30
2018-03-11T10:44:12.880Z,9.10
2018-03-11T10:44:51.247Z,9.10
2018-03-11T10:45:26.876Z,9.20
2018-03-11T10:46:02.132Z,9.50
2018-03-11T10:46:37.584Z,9.20
2018-03-11T10:47:13.449Z,8.90
2018-03-11T10:47:49.130Z,8.90
2018-03-11T10:48:24.572Z,9.20
2018-03-11T10:49:00.135Z,9.40
2018-03-11T10:49:35.785Z,9.10
2018-03-11T10:50:11.205Z,9.50
2018-03-11T10:50:47.066Z,10.00
2018-03-11T10:51:23.285Z,9.60
2018-03-11T10:51:58.823Z,9.50
2018-03-11T10:52:34.169Z,10.40
2018-03-11T10:53:09.489Z,9.60
2018-03-11T10:53:44.719Z,9.10
2018-03-11T10:54:20.328Z,8.80
2018-03-11T10:54:55.698Z,8.80
2018-03-11T10:55:31.490Z,9.30
2018-03-11T10:56:06.713Z,9.00
2018-03-11T10:56:42.173Z,8.60
2018-03-11T10:57:17.866Z,8.70
2018-03-11T10:57:53.333Z,8.60
2018-03-11T10:58:28.877Z,9.20
2018-03-11T10:59:04.412Z,9.00
2018-03-11T10:59:39.749Z,8.00
2018-03-11T11:00:15.046Z,8.30
2018-03-11T11:00:53.505Z,8.40
2018-03-11T11:01:30.107Z,8.50
2018-03-11T11:02:04.221Z,9.20
2018-03-11T11:02:39.452Z,8.40
2018-03-11T11:03:14.745Z,8.30
2018-03-11T11:03:50.117Z,8.40
2018-03-11T11:04:25.625Z,8.90
2018-03-11T11:05:01.073Z,8.50
2018-03-11T11:05:36.550Z,8.30
2018-03-11T11:06:11.973Z,8.50
2018-03-11T11:06:47.146Z,8.20
2018-03-11T11:07:22.506Z,8.80
2018-03-11T11:07:58.058Z,7.90
2018-03-11T11:08:33.682Z,6.90
2018-03-11T11:09:09.220Z,7.90
2018-03-11T11:09:44.535Z,8.50
2018-03-11T11:10:20.093Z,8.10
2018-03-11T11:10:55.337Z,8.50
2018-03-11T11:11:30.856Z,8.00
2018-03-11T11:12:06.253Z,7.70
2018-03-11T11:12:41.920Z,8.50
2018-03-11T11:13:17.337Z,7.90
2018-03-11T11:13:52.852Z,7.10
2018-03-11T11:14:28.262Z,6.70
2018-03-11T11:15:03.630Z,7.00
2018-03-11T11:15:39.886Z,7.30
2018-03-11T11:16:15.256Z,7.60
2018-03-11T11:16:50.483Z,7.40
2018-03-11T11:17:26.085Z,6.90
2018-03-11T11:18:01.296Z,7.10
2018-03-11T11:18:36.593Z,7.20
2018-03-11T11:19:11.765Z,7.20
2018-03-11T11:19:47.491Z,7.10
2018-03-11T11:20:22.817Z,6.90
2018-03-11T11:20:58.103Z,7.10
2018-03-11T11:21:33.548Z,7.10
2018-03-11T11:22:08.726Z,7.00
2018-03-11T11:22:44.762Z,7.10
2018-03-11T11:23:20.148Z,6.80
2018-03-11T11:23:55.658Z,6.00
2018-03-11T11:24:31.101Z,5.50
2018-03-11T11:25:06.653Z,5.10
2018-03-11T11:25:41.994Z,5.50
2018-03-11T11:26:17.507Z,5.30
2018-03-11T11:26:53.180Z,4.80
2018-03-11T11:27:28.696Z,4.90
2018-03-11T11:28:04.317Z,5.00
2018-03-11T11:28:39.837Z,4.70
2018-03-11T11:29:15.241Z,4.40
2018-03-11T11:29:50.577Z,4.30
2018-03-11T11:30:25.935Z,4.50
2018-03-11T11:31:01.770Z,4.80
2018-03-11T11:31:37.561Z,4.60
2018-03-11T11:32:13.170Z,3.90
2018-03-11T11:32:48.960Z,4.50
2018-03-11T11:33:24.303Z,4.60
2018-03-11T11:33:59.863Z,4.10
2018-03-11T11:34:35.194Z,3.90
2018-03-11T11:35:10.801Z,3.90
2018-03-11T11:35:47.114Z,4.00
2018-03-11T11:36:22.465Z,3.60
2018-03-11T11:36:57.799Z,3.90
2018-03-11T11:37:33.045Z,3.90
2018-03-11T11:38:08.586Z,3.60
2018-03-11T11:38:44.063Z,3.70
2018-03-11T11:39:19.527Z,3.80
2018-03-11T11:39:54.808Z,3.20
2018-03-11T11:40:30.254Z,3.20
2018-03-11T11:41:05.709Z,3.10
2018-03-11T11:41:41.662Z,3.40
2018-03-11T11:42:16.962Z,3.50
2018-03-11T11:42:52.613Z,3.10
2018-03-11T11:43:28.104Z,3.20
2018-03-11T11:44:03.384Z,3.50
2018-03-11T11:44:38.976Z,3.50
2018-03-11T11:45:14.813Z,3.50
2018-03-11T11:45:51.965Z,2.90
2018-03-11T11:46:27.414Z,3.00
2018-03-11T11:47:02.772Z,3.00
2018-03-11T11:47:38.004Z,3.30
2018-03-11T11:48:13.488Z,4.00
2018-03-11T11:48:48.939Z,3.40
2018-03-11T11:49:24.655Z,3.20
2018-03-11T11:50:00.338Z,3.20
2018-03-11T11:50:35.525Z,3.20
2018-03-11T11:51:10.748Z,3.80
2018-03-11T11:51:46.157Z,4.10
2018-03-11T11:52:21.469Z,3.70
2018-03-11T11:52:56.833Z,4.00
2018-03-11T11:53:32.329Z,3.70
2018-03-11T11:54:07.720Z,3.40
2018-03-11T11:54:43.376Z,4.00
2018-03-11T11:55:18.753Z,3.70
2018-03-11T11:55:53.966Z,3.30
2018-03-11T11:56:29.555Z,3.20
2018-03-11T11:57:04.778Z,3.30
2018-03-11T11:57:40.438Z,3.50
2018-03-11T11:58:15.752Z,3.50
2018-03-11T11:58:51.229Z,3.50
2018-03-11T11:59:26.775Z,3.40
2018-03-11T12:00:02.023Z,3.60
2018-03-11T12:00:39.458Z,3.70
2018-03-11T12:01:14.712Z,3.70
2018-03-11T12:01:50.059Z,3.60
2018-03-11T12:02:25.646Z,3.70
2018-03-11T12:03:00.971Z,3.70
2018-03-11T12:03:37.029Z,3.40
2018-03-11T12:04:12.576Z,3.50
2018-03-11T12:04:48.435Z,3.70
2018-03-11T12:05:24.009Z,3.80
2018-03-11T12:05:59.804Z,4.40
2018-03-11T12:06:35.463Z,4.30
2018-03-11T12:07:10.811Z,3.80
2018-03-11T12:07:45.936Z,3.60
2018-03-11T12:08:21.204Z,3.70
2018-03-11T12:08:56.634Z,3.60
2018-03-11T12:09:32.015Z,3.30
2018-03-11T12:10:07.254Z,3.40
2018-03-11T12:10:44.612Z,3.60
2018-03-11T12:11:20.267Z,3.50
2018-03-11T12:11:55.807Z,3.40
2018-03-11T12:12:30.913Z,3.60
2018-03-11T12:13:06.400Z,3.90
2018-03-11T12:13:41.872Z,3.90
2018-03-11T12:14:17.273Z,3.80
2018-03-11T12:14:53.036Z,3.90
2018-03-11T12:15:28.542Z,3.90
2018-03-11T12:16:03.971Z,3.80
2018-03-11T12:16:39.347Z,3.70
2018-03-11T12:17:14.790Z,3.50
2018-03-11T12:17:50.142Z,3.20
2018-03-11T12:18:25.365Z,3.00
2018-03-11T12:19:00.751Z,3.30
2018-03-11T12:19:36.180Z,3.40
2018-03-11T12:20:12.463Z,3.50
2018-03-11T12:20:48.100Z,3.60
2018-03-11T12:21:23.361Z,3.50
2018-03-11T12:21:58.812Z,3.60
2018-03-11T12:22:34.518Z,3.60
2018-03-11T12:23:09.618Z,3.40
2018-03-11T12:23:45.660Z,3.30
2018-03-11T12:24:21.113Z,3.30
2018-03-11T12:24:56.498Z,3.30
2018-03-11T12:25:33.650Z,3.10
2018-03-11T12:26:08.833Z,3.20
2018-03-11T12:26:44.252Z,3.10
2018-03-11T12:27:19.732Z,3.30
2018-03-11T12:27:55.140Z,3.60
2018-03-11T12:28:30.497Z,3.30
2018-03-11T12:29:05.887Z,3.30
2018-03-11T12:29:41.257Z,3.60
2018-03-11T12:30:16.805Z,3.50
2018-03-11T12:30:52.246Z,3.40
2018-03-11T12:31:28.032Z,3.80
2018-03-11T12:32:03.459Z,3.50
2018-03-11T12:32:38.774Z,3.40
2018-03-11T12:33:14.043Z,3.90
2018-03-11T12:33:49.478Z,3.30
2018-03-11T12:34:25.221Z,3.40
2018-03-11T12:35:00.672Z,3.40
2018-03-11T12:35:36.179Z,3.80
2018-03-11T12:36:11.505Z,3.80
2018-03-11T12:36:46.902Z,3.60
2018-03-11T12:37:22.479Z,3.60
2018-03-11T12:37:57.822Z,3.10
2018-03-11T12:38:33.373Z,3.70
2018-03-11T12:39:08.871Z,3.30
2018-03-11T12:39:44.388Z,2.90
2018-03-11T12:40:20.045Z,3.20
2018-03-11T12:40:57.709Z,3.00
2018-03-11T12:41:33.032Z,3.20
2018-03-11T12:42:08.285Z,3.20
2018-03-11T12:42:44.451Z,3.20
2018-03-11T12:43:19.894Z,3.40
2018-03-11T12:43:55.346Z,3.30
2018-03-11T12:44:30.766Z,3.30
2018-03-11T12:45:06.127Z,3.60
2018-03-11T12:45:43.044Z,3.70
2018-03-11T12:46:18.586Z,3.30
2018-03-11T12:46:53.990Z,3.20
2018-03-11T12:47:29.797Z,3.50
2018-03-11T12:48:05.232Z,3.30
2018-03-11T12:48:40.679Z,3.20
2018-03-11T12:49:16.406Z,3.50
2018-03-11T12:49:51.930Z,3.60
2018-03-11T12:50:26.974Z,3.10
2018-03-11T12:51:02.569Z,3.10
2018-03-11T12:51:37.918Z,3.40
2018-03-11T12:52:13.306Z,3.30
2018-03-11T12:52:48.921Z,2.90
2018-03-11T12:53:24.072Z,2.70
2018-03-11T12:53:59.406Z,3.00
2018-03-11T12:54:34.953Z,3.00
2018-03-11T12:55:10.398Z,2.90
2018-03-11T12:55:47.553Z,2.90
2018-03-11T12:56:23.178Z,3.10
2018-03-11T12:56:58.754Z,3.10
2018-03-11T12:57:34.265Z,3.40
2018-03-11T12:58:09.638Z,3.40
2018-03-11T12:58:44.865Z,3.30
2018-03-11T12:59:19.798Z,3.20
2018-03-11T12:59:55.324Z,3.00
2018-03-11T13:00:30.691Z,2.90
2018-03-11T13:01:09.933Z,3.20
2018-03-11T13:01:45.678Z,3.50
2018-03-11T13:02:21.044Z,2.90
2018-03-11T13:03:03.316Z,2.90
2018-03-11T13:03:40.375Z,3.10
2018-03-11T13:04:15.703Z,3.50
2018-03-11T13:04:52.299Z,3.60
2018-03-11T13:05:27.990Z,2.90
2018-03-11T13:06:03.489Z,2.90
2018-03-11T13:06:38.955Z,3.20
2018-03-11T13:07:16.687Z,3.00
2018-03-11T13:07:55.202Z,2.80
2018-03-11T13:08:35.867Z,2.90
2018-03-11T13:09:13.330Z,3.00
2018-03-11T13:09:50.365Z,3.10
2018-03-11T13:10:25.678Z,3.60
2018-03-11T13:11:01.419Z,3.50
2018-03-11T13:11:36.765Z,3.40
2018-03-11T13:12:15.249Z,3.10
2018-03-11T13:12:53.835Z,3.20
2018-03-11T13:13:29.299Z,3.20
2018-03-11T13:14:04.522Z,3.00
2018-03-11T13:14:40.299Z,3.10
2018-03-11T13:15:15.734Z,3.30
2018-03-11T13:15:51.862Z,3.20
2018-03-11T13:16:27.594Z,2.90
2018-03-11T13:17:02.945Z,3.20
2018-03-11T13:17:38.405Z,3.60
2018-03-11T13:18:13.546Z,3.30
2018-03-11T13:18:49.002Z,3.10
2018-03-11T13:19:24.228Z,3.00
2018-03-11T13:19:59.536Z,3.20
2018-03-11T13:20:34.959Z,3.00
2018-03-11T13:21:10.863Z,2.80
2018-03-11T13:21:46.275Z,3.20
2018-03-11T13:22:21.722Z,3.20
2018-03-11T13:22:57.037Z,3.20
2018-03-11T13:23:32.387Z,3.40
2018-03-11T13:24:07.617Z,3.30
2018-03-11T13:24:43.305Z,3.10
2018-03-11T13:25:18.763Z,3.40
2018-03-11T13:25:54.810Z,3.40
2018-03-11T13:26:30.166Z,3.20
2018-03-11T13:27:05.617Z,3.20
2018-03-11T13:27:40.741Z,3.20
2018-03-11T13:28:16.093Z,3.60
2018-03-11T13:28:51.646Z,3.20
2018-03-11T13:29:27.008Z,3.10
2018-03-11T13:30:02.536Z,3.00
2018-03-11T13:30:39.057Z,3.30
2018-03-11T13:31:14.385Z,3.30
2018-03-11T13:31:49.941Z,3.50
2018-03-11T13:32:25.178Z,3.40
2018-03-11T13:33:00.806Z,3.40
2018-03-11T13:33:36.256Z,3.50
2018-03-11T13:34:11.755Z,3.50
2018-03-11T13:34:46.878Z,3.00
2018-03-11T13:35:22.121Z,3.00
2018-03-11T13:35:57.702Z,3.00
2018-03-11T13:36:33.046Z,3.80
2018-03-11T13:37:08.276Z,3.40
2018-03-11T13:37:43.707Z,3.30
2018-03-11T13:38:18.930Z,3.60
2018-03-11T13:38:54.082Z,3.20
2018-03-11T13:39:29.565Z,3.40
2018-03-11T13:40:05.254Z,3.60
2018-03-11T13:40:40.763Z,3.30
2018-03-11T13:41:16.058Z,3.30
2018-03-11T13:41:51.462Z,3.40
2018-03-11T13:42:26.910Z,3.30
2018-03-11T13:43:02.748Z,3.50
2018-03-11T13:43:38.085Z,2.90
2018-03-11T13:44:13.801Z,3.10
2018-03-11T13:44:50.171Z,3.60
2018-03-11T13:45:25.379Z,3.10
2018-03-11T13:46:00.821Z,3.20
2018-03-11T13:46:36.328Z,3.10
2018-03-11T13:47:11.799Z,3.00
2018-03-11T13:47:47.130Z,3.30
2018-03-11T13:48:22.865Z,3.40
2018-03-11T13:48:58.330Z,3.40
2018-03-11T13:49:33.489Z,3.40
2018-03-11T13:50:09.033Z,3.80
2018-03-11T13:50:45.418Z,3.40
2018-03-11T13:51:20.734Z,3.50
2018-03-11T13:51:56.639Z,3.40
2018-03-11T13:52:32.180Z,3.10
2018-03-11T13:53:07.642Z,3.50
2018-03-11T13:53:43.156Z,3.70
2018-03-11T13:54:18.697Z,3.80
2018-03-11T13:54:54.526Z,3.50
2018-03-11T13:55:29.912Z,3.50
2018-03-11T13:56:05.257Z,3.60
2018-03-11T13:56:40.711Z,3.50
2018-03-11T13:57:16.258Z,4.00
2018-03-11T13:57:51.404Z,3.40
2018-03-11T13:58:27.067Z,3.30
2018-03-11T13:59:02.457Z,3.10
2018-03-11T13:59:38.369Z,3.40
2018-03-11T14:00:13.989Z,3.60
2018-03-11T14:00:50.427Z,3.30
2018-03-11T14:01:25.774Z,3.50
2018-03-11T14:02:01.595Z,3.30
2018-03-11T14:02:37.079Z,3.30
2018-03-11T14:03:12.607Z,3.30
2018-03-11T14:03:48.155Z,3.30
2018-03-11T14:04:23.615Z,3.30
2018-03-11T14:04:58.966Z,3.10
2018-03-11T14:05:34.495Z,3.40
2018-03-11T14:06:09.919Z,3.40
2018-03-11T14:06:45.291Z,3.90
2018-03-11T14:07:21.071Z,4.10
2018-03-11T14:07:56.590Z,3.90
2018-03-11T14:08:31.721Z,3.40
2018-03-11T14:09:07.266Z,3.10
2018-03-11T14:09:42.520Z,3.10
2018-03-11T14:10:18.170Z,3.20
2018-03-11T14:10:53.594Z,3.20
2018-03-11T14:11:28.910Z,3.20
2018-03-11T14:12:04.614Z,3.00
2018-03-11T14:12:39.870Z,3.20
2018-03-11T14:13:15.542Z,3.10
2018-03-11T14:13:50.951Z,3.40
2018-03-11T14:14:26.213Z,3.60
2018-03-11T14:15:01.785Z,3.40
2018-03-11T14:15:37.519Z,3.50
2018-03-11T14:16:12.735Z,3.80
2018-03-11T14:16:48.436Z,3.80
2018-03-11T14:17:23.878Z,3.40
2018-03-11T14:17:59.367Z,3.30
2018-03-11T14:18:34.956Z,3.10
2018-03-11T14:19:10.304Z,3.30
2018-03-11T14:19:45.634Z,3.70
2018-03-11T14:20:20.908Z,4.00
2018-03-11T14:20:56.050Z,3.50
2018-03-11T14:21:31.440Z,3.40
2018-03-11T14:22:06.758Z,3.30
2018-03-11T14:22:42.825Z,3.50
2018-03-11T14:23:18.251Z,3.60
2018-03-11T14:23:53.672Z,3.30
2018-03-11T14:24:28.776Z,3.20
2018-03-11T14:25:04.729Z,3.30
2018-03-11T14:25:40.666Z,3.60
2018-03-11T14:26:16.200Z,3.70